TCA7378 SVMG-SKLM
Flight info
| Callsign | TCA7378 |
|---|---|
| Flight time | 1h 30m |
| Altitude | 44000 |
| Route | ESPEP SARNI DCT CBC UP671 ANLIN UM409 URIBI |
| Aircraft | C25B/M-SDE2E3FGHRWXY/LB1 |
Departure
| Time | 2026-04-24 20:57 |
|---|---|
| Airport | Del Caribe Santiago Mariño International Airport (SVMG) |
Arrival
| Time | 2026-04-24 22:27 |
|---|---|
| Airport | Jorge Isaac Airport (SKLM) |
| Time | Latitude | Longitude | Altitude | Speed | Heading |
|---|---|---|---|---|---|
| 2026-04-24 20:54 | 10.91451 | -63.97142 | 54 ft | 0 kts | 78° |
| 2026-04-24 20:55 | 10.91452 | -63.97132 | 56 ft | 5 kts | 98° |
| 2026-04-24 20:55 | 10.91425 | -63.97140 | 56 ft | 9 kts | 258° |
| 2026-04-24 20:55 | 10.91353 | -63.97167 | 57 ft | 15 kts | 192° |
| 2026-04-24 20:55 | 10.91311 | -63.97175 | 53 ft | 10 kts | 103° |
| 2026-04-24 20:56 | 10.91242 | -63.97141 | 58 ft | 15 kts | 166° |
| 2026-04-24 20:56 | 10.91177 | -63.97079 | 61 ft | 14 kts | 77° |
| 2026-04-24 20:56 | 10.91256 | -63.96688 | 56 ft | 113 kts | 78° |
| 2026-04-24 20:56 | 10.91472 | -63.95659 | 621 ft | 170 kts | 80° |
| 2026-04-24 20:57 | 10.91774 | -63.94381 | 1706 ft | 201 kts | 77° |
| 2026-04-24 20:57 | 10.91678 | -63.92897 | 2767 ft | 223 kts | 111° |
| 2026-04-24 20:57 | 10.90629 | -63.91719 | 3739 ft | 233 kts | 147° |
| 2026-04-24 20:57 | 10.89035 | -63.91367 | 4713 ft | 242 kts | 182° |
| 2026-04-24 20:58 | 10.87495 | -63.92003 | 5646 ft | 250 kts | 217° |
| 2026-04-24 20:58 | 10.86442 | -63.93414 | 6586 ft | 254 kts | 240° |
| 2026-04-24 20:58 | 10.85659 | -63.95035 | 7457 ft | 258 kts | 249° |
| 2026-04-24 20:58 | 10.85167 | -63.96797 | 8340 ft | 260 kts | 255° |
| 2026-04-24 20:59 | 10.84708 | -63.98589 | 9170 ft | 264 kts | 255° |
| 2026-04-24 20:59 | 10.84258 | -64.00404 | 10008 ft | 266 kts | 255° |
| 2026-04-24 20:59 | 10.83800 | -64.02230 | 10827 ft | 267 kts | 256° |
| 2026-04-24 20:59 | 10.83345 | -64.04070 | 11653 ft | 269 kts | 255° |
| 2026-04-24 21:00 | 10.82891 | -64.05898 | 12425 ft | 271 kts | 255° |
| 2026-04-24 21:00 | 10.82438 | -64.07764 | 13194 ft | 273 kts | 255° |
| 2026-04-24 21:00 | 10.81977 | -64.09655 | 13914 ft | 277 kts | 255° |
| 2026-04-24 21:00 | 10.81519 | -64.11570 | 14612 ft | 280 kts | 255° |
| 2026-04-24 21:01 | 10.81056 | -64.13505 | 15297 ft | 283 kts | 255° |
| 2026-04-24 21:01 | 10.80595 | -64.15460 | 15962 ft | 286 kts | 256° |
| 2026-04-24 21:01 | 10.80132 | -64.17441 | 16601 ft | 289 kts | 255° |
| 2026-04-24 21:01 | 10.79668 | -64.19443 | 17249 ft | 292 kts | 256° |
| 2026-04-24 21:02 | 10.79206 | -64.21438 | 17847 ft | 295 kts | 255° |
| 2026-04-24 21:02 | 10.78739 | -64.23482 | 18447 ft | 298 kts | 256° |
| 2026-04-24 21:02 | 10.78269 | -64.25545 | 19027 ft | 300 kts | 256° |
| 2026-04-24 21:02 | 10.77797 | -64.27627 | 19578 ft | 304 kts | 255° |
| 2026-04-24 21:03 | 10.77319 | -64.29723 | 20134 ft | 306 kts | 256° |
| 2026-04-24 21:03 | 10.76835 | -64.31843 | 20672 ft | 309 kts | 255° |
| 2026-04-24 21:03 | 10.76348 | -64.33980 | 21199 ft | 311 kts | 256° |
| 2026-04-24 21:03 | 10.75854 | -64.36134 | 21713 ft | 314 kts | 256° |
| 2026-04-24 21:04 | 10.75358 | -64.38305 | 22202 ft | 316 kts | 256° |
| 2026-04-24 21:04 | 10.74862 | -64.40463 | 22682 ft | 319 kts | 256° |
| 2026-04-24 21:04 | 10.74362 | -64.42667 | 23159 ft | 321 kts | 256° |
| 2026-04-24 21:04 | 10.73859 | -64.44884 | 23611 ft | 323 kts | 256° |
| 2026-04-24 21:05 | 10.73350 | -64.47121 | 24048 ft | 326 kts | 256° |
| 2026-04-24 21:05 | 10.72837 | -64.49374 | 24500 ft | 328 kts | 256° |
| 2026-04-24 21:05 | 10.72316 | -64.51640 | 24934 ft | 330 kts | 256° |
| 2026-04-24 21:05 | 10.71796 | -64.53920 | 25358 ft | 332 kts | 256° |
| 2026-04-24 21:06 | 10.71274 | -64.56181 | 25788 ft | 334 kts | 256° |
| 2026-04-24 21:06 | 10.70885 | -64.58512 | 26196 ft | 337 kts | 265° |
| 2026-04-24 21:06 | 10.70922 | -64.60900 | 26612 ft | 339 kts | 271° |
| 2026-04-24 21:06 | 10.71084 | -64.63300 | 27026 ft | 341 kts | 273° |
| 2026-04-24 21:07 | 10.71286 | -64.65713 | 27423 ft | 343 kts | 273° |
| 2026-04-24 21:07 | 10.71488 | -64.68135 | 27831 ft | 345 kts | 273° |
| 2026-04-24 21:07 | 10.71676 | -64.70577 | 28225 ft | 347 kts | 273° |
| 2026-04-24 21:07 | 10.71863 | -64.73031 | 28606 ft | 349 kts | 272° |
| 2026-04-24 21:08 | 10.72052 | -64.75498 | 28995 ft | 351 kts | 273° |
| 2026-04-24 21:08 | 10.72247 | -64.77950 | 29361 ft | 353 kts | 273° |
| 2026-04-24 21:08 | 10.72442 | -64.80440 | 29729 ft | 355 kts | 272° |
| 2026-04-24 21:08 | 10.72647 | -64.82947 | 30099 ft | 357 kts | 272° |
| 2026-04-24 21:09 | 10.72851 | -64.85410 | 31091 ft | 336 kts | 272° |
| 2026-04-24 21:09 | 10.73053 | -64.87677 | 32371 ft | 311 kts | 272° |
| 2026-04-24 21:09 | 10.73279 | -64.89853 | 32945 ft | 312 kts | 272° |
| 2026-04-24 21:09 | 10.73527 | -64.92069 | 33330 ft | 318 kts | 272° |
| 2026-04-24 21:10 | 10.73793 | -64.94311 | 33800 ft | 321 kts | 272° |
| 2026-04-24 21:10 | 10.74060 | -64.96544 | 34236 ft | 324 kts | 272° |
| 2026-04-24 21:10 | 10.74294 | -64.98832 | 34682 ft | 326 kts | 271° |
| 2026-04-24 21:10 | 10.74516 | -65.01133 | 35154 ft | 328 kts | 271° |
| 2026-04-24 21:11 | 10.74731 | -65.03450 | 35595 ft | 330 kts | 271° |
| 2026-04-24 21:11 | 10.74942 | -65.05783 | 36050 ft | 332 kts | 271° |
| 2026-04-24 21:11 | 10.75152 | -65.08131 | 36486 ft | 334 kts | 271° |
| 2026-04-24 21:11 | 10.75357 | -65.10496 | 36899 ft | 337 kts | 271° |
| 2026-04-24 21:12 | 10.75555 | -65.12871 | 37330 ft | 339 kts | 271° |
| 2026-04-24 21:12 | 10.75686 | -65.14456 | 37601 ft | 340 kts | 271° |
| 2026-04-24 21:12 | 10.75939 | -65.17636 | 38149 ft | 342 kts | 271° |
| 2026-04-24 21:12 | 10.76128 | -65.20056 | 38568 ft | 344 kts | 271° |
| 2026-04-24 21:13 | 10.76315 | -65.22485 | 38969 ft | 345 kts | 271° |
| 2026-04-24 21:13 | 10.76498 | -65.24926 | 39365 ft | 347 kts | 271° |
| 2026-04-24 21:13 | 10.76679 | -65.27375 | 39774 ft | 347 kts | 271° |
| 2026-04-24 21:13 | 10.76856 | -65.29827 | 40169 ft | 348 kts | 271° |
| 2026-04-24 21:14 | 10.77027 | -65.32283 | 40572 ft | 348 kts | 271° |
| 2026-04-24 21:14 | 10.77191 | -65.34712 | 40944 ft | 349 kts | 271° |
| 2026-04-24 21:14 | 10.77354 | -65.37180 | 41309 ft | 350 kts | 271° |
| 2026-04-24 21:14 | 10.77513 | -65.39656 | 41662 ft | 351 kts | 271° |
| 2026-04-24 21:15 | 10.77667 | -65.42132 | 42010 ft | 352 kts | 271° |
| 2026-04-24 21:15 | 10.77817 | -65.44621 | 42348 ft | 353 kts | 271° |
| 2026-04-24 21:15 | 10.77962 | -65.47116 | 42674 ft | 354 kts | 271° |
| 2026-04-24 21:15 | 10.78139 | -65.49618 | 42978 ft | 355 kts | 272° |
| 2026-04-24 21:16 | 10.78348 | -65.52125 | 43286 ft | 356 kts | 273° |
| 2026-04-24 21:16 | 10.78566 | -65.54605 | 43563 ft | 357 kts | 273° |
| 2026-04-24 21:16 | 10.78785 | -65.57125 | 43851 ft | 358 kts | 273° |
| 2026-04-24 21:16 | 10.79005 | -65.59679 | 43868 ft | 367 kts | 273° |
| 2026-04-24 21:17 | 10.79449 | -65.64956 | 43882 ft | 382 kts | 273° |
| 2026-04-24 21:17 | 10.79835 | -65.69469 | 43880 ft | 387 kts | 273° |
| 2026-04-24 21:18 | 10.80396 | -65.75799 | 43875 ft | 386 kts | 273° |
| 2026-04-24 21:18 | 10.80882 | -65.81227 | 43882 ft | 386 kts | 273° |
| 2026-04-24 21:19 | 10.81372 | -65.86655 | 43886 ft | 385 kts | 273° |
| 2026-04-24 21:19 | 10.81868 | -65.92078 | 43887 ft | 385 kts | 273° |
| 2026-04-24 21:20 | 10.82616 | -66.00173 | 43887 ft | 385 kts | 273° |
| 2026-04-24 21:21 | 10.83119 | -66.05590 | 43886 ft | 384 kts | 273° |
| 2026-04-24 21:21 | 10.83626 | -66.11004 | 43889 ft | 384 kts | 273° |
| 2026-04-24 21:22 | 10.84137 | -66.16408 | 43889 ft | 384 kts | 273° |
| 2026-04-24 21:22 | 10.84648 | -66.21781 | 43889 ft | 384 kts | 274° |
| 2026-04-24 21:23 | 10.85164 | -66.27188 | 43889 ft | 384 kts | 274° |
| 2026-04-24 21:23 | 10.85681 | -66.32595 | 43885 ft | 384 kts | 274° |
| 2026-04-24 21:24 | 10.86202 | -66.38001 | 43887 ft | 384 kts | 274° |
| 2026-04-24 21:24 | 10.86722 | -66.43367 | 43890 ft | 384 kts | 274° |
| 2026-04-24 21:25 | 10.87248 | -66.48772 | 43890 ft | 384 kts | 274° |
| 2026-04-24 21:25 | 10.87776 | -66.54176 | 43889 ft | 384 kts | 274° |
| 2026-04-24 21:26 | 10.88312 | -66.59578 | 43889 ft | 384 kts | 274° |
| 2026-04-24 21:26 | 10.88849 | -66.64942 | 43891 ft | 384 kts | 274° |
| 2026-04-24 21:27 | 10.89394 | -66.70340 | 43886 ft | 383 kts | 274° |
| 2026-04-24 21:27 | 10.89939 | -66.75732 | 43891 ft | 383 kts | 274° |
| 2026-04-24 21:28 | 10.90488 | -66.81128 | 43891 ft | 383 kts | 274° |
| 2026-04-24 21:28 | 10.91038 | -66.86524 | 43892 ft | 383 kts | 274° |
| 2026-04-24 21:29 | 10.91584 | -66.91885 | 43888 ft | 383 kts | 274° |
| 2026-04-24 21:29 | 10.92136 | -66.97280 | 43891 ft | 383 kts | 274° |
| 2026-04-24 21:30 | 10.92692 | -67.02675 | 43885 ft | 383 kts | 274° |
| 2026-04-24 21:30 | 10.93245 | -67.08033 | 43890 ft | 383 kts | 274° |
| 2026-04-24 21:31 | 10.93807 | -67.13420 | 43888 ft | 383 kts | 274° |
| 2026-04-24 21:31 | 10.94371 | -67.18809 | 43890 ft | 383 kts | 274° |
| 2026-04-24 21:32 | 10.94938 | -67.24195 | 43890 ft | 383 kts | 274° |
| 2026-04-24 21:32 | 10.95508 | -67.29580 | 43895 ft | 383 kts | 274° |
| 2026-04-24 21:33 | 10.96076 | -67.34928 | 43892 ft | 383 kts | 274° |
| 2026-04-24 21:33 | 10.96647 | -67.40310 | 43896 ft | 382 kts | 274° |
| 2026-04-24 21:34 | 10.97218 | -67.45692 | 43896 ft | 382 kts | 274° |
| 2026-04-24 21:34 | 10.97792 | -67.51066 | 43896 ft | 382 kts | 274° |
| 2026-04-24 21:35 | 10.98370 | -67.56445 | 43896 ft | 382 kts | 274° |
| 2026-04-24 21:35 | 10.98948 | -67.61786 | 43903 ft | 382 kts | 274° |
| 2026-04-24 21:36 | 10.99536 | -67.67159 | 43904 ft | 382 kts | 274° |
| 2026-04-24 21:36 | 11.00128 | -67.72530 | 43904 ft | 382 kts | 274° |
| 2026-04-24 21:37 | 11.00718 | -67.77864 | 43904 ft | 382 kts | 274° |
| 2026-04-24 21:37 | 11.01313 | -67.83227 | 43904 ft | 382 kts | 274° |
| 2026-04-24 21:38 | 11.01911 | -67.88595 | 43904 ft | 382 kts | 274° |
| 2026-04-24 21:38 | 11.02513 | -67.93963 | 43918 ft | 381 kts | 274° |
| 2026-04-24 21:39 | 11.03116 | -67.99325 | 43920 ft | 381 kts | 274° |
| 2026-04-24 21:39 | 11.03715 | -68.04651 | 43922 ft | 381 kts | 274° |
| 2026-04-24 21:40 | 11.04324 | -68.10000 | 43923 ft | 381 kts | 274° |
| 2026-04-24 21:40 | 11.04939 | -68.15349 | 43924 ft | 380 kts | 274° |
| 2026-04-24 21:41 | 11.05555 | -68.20696 | 43923 ft | 380 kts | 274° |
| 2026-04-24 21:41 | 11.06170 | -68.26004 | 43923 ft | 380 kts | 275° |
| 2026-04-24 21:42 | 11.06792 | -68.31346 | 43923 ft | 380 kts | 275° |
| 2026-04-24 21:42 | 11.07419 | -68.36681 | 43923 ft | 380 kts | 275° |
| 2026-04-24 21:43 | 11.08052 | -68.42027 | 43923 ft | 380 kts | 275° |
| 2026-04-24 21:43 | 11.08683 | -68.47331 | 43923 ft | 380 kts | 275° |
| 2026-04-24 21:44 | 11.09320 | -68.52666 | 43923 ft | 380 kts | 275° |
| 2026-04-24 21:44 | 11.09962 | -68.58006 | 43923 ft | 380 kts | 275° |
| 2026-04-24 21:45 | 11.10606 | -68.63348 | 43923 ft | 380 kts | 275° |
| 2026-04-24 21:45 | 11.11248 | -68.68655 | 43929 ft | 380 kts | 275° |
| 2026-04-24 21:46 | 11.11898 | -68.73996 | 43930 ft | 380 kts | 275° |
| 2026-04-24 21:46 | 11.12550 | -68.79338 | 43930 ft | 380 kts | 275° |
| 2026-04-24 21:47 | 11.13208 | -68.84641 | 43931 ft | 380 kts | 275° |
| 2026-04-24 21:47 | 11.13878 | -68.89971 | 43931 ft | 380 kts | 275° |
| 2026-04-24 21:48 | 11.14552 | -68.95305 | 43931 ft | 380 kts | 275° |
| 2026-04-24 21:48 | 11.15228 | -69.00639 | 43931 ft | 380 kts | 275° |
| 2026-04-24 21:49 | 11.15902 | -69.05937 | 43931 ft | 380 kts | 275° |
| 2026-04-24 21:49 | 11.16584 | -69.11267 | 43931 ft | 380 kts | 275° |
| 2026-04-24 21:50 | 11.17269 | -69.16597 | 43931 ft | 379 kts | 275° |
| 2026-04-24 21:50 | 11.17957 | -69.21925 | 43931 ft | 379 kts | 275° |
| 2026-04-24 21:51 | 11.18642 | -69.27211 | 43932 ft | 379 kts | 275° |
| 2026-04-24 21:51 | 11.19339 | -69.32539 | 43932 ft | 380 kts | 275° |
| 2026-04-24 21:52 | 11.20040 | -69.37867 | 43932 ft | 380 kts | 275° |
| 2026-04-24 21:52 | 11.20751 | -69.43194 | 43933 ft | 379 kts | 275° |
| 2026-04-24 21:53 | 11.21462 | -69.48484 | 43933 ft | 379 kts | 275° |
| 2026-04-24 21:53 | 11.22181 | -69.53802 | 43933 ft | 379 kts | 275° |
| 2026-04-24 21:54 | 11.22900 | -69.59126 | 43934 ft | 379 kts | 275° |
| 2026-04-24 21:54 | 11.23557 | -69.64453 | 43934 ft | 378 kts | 272° |
| 2026-04-24 21:55 | 11.23808 | -69.69763 | 43932 ft | 378 kts | 269° |
| 2026-04-24 21:55 | 11.23966 | -69.75108 | 43932 ft | 377 kts | 269° |
| 2026-04-24 21:56 | 11.24116 | -69.80452 | 43933 ft | 377 kts | 269° |
| 2026-04-24 21:56 | 11.24268 | -69.85790 | 43934 ft | 377 kts | 269° |
| 2026-04-24 21:57 | 11.24421 | -69.91108 | 43933 ft | 378 kts | 269° |
| 2026-04-24 21:57 | 11.24576 | -69.96451 | 43933 ft | 378 kts | 269° |
| 2026-04-24 21:58 | 11.24736 | -70.01804 | 43923 ft | 378 kts | 269° |
| 2026-04-24 21:58 | 11.24908 | -70.07158 | 43913 ft | 378 kts | 269° |
| 2026-04-24 21:59 | 11.25088 | -70.12514 | 43915 ft | 378 kts | 269° |
| 2026-04-24 21:59 | 11.25268 | -70.17828 | 43905 ft | 378 kts | 269° |
| 2026-04-24 22:00 | 11.25454 | -70.23189 | 43889 ft | 379 kts | 269° |
| 2026-04-24 22:00 | 11.25647 | -70.28552 | 43885 ft | 379 kts | 269° |
| 2026-04-24 22:01 | 11.25846 | -70.33876 | 43889 ft | 379 kts | 269° |
| 2026-04-24 22:01 | 11.26046 | -70.39235 | 43886 ft | 379 kts | 269° |
| 2026-04-24 22:02 | 11.26249 | -70.44593 | 43889 ft | 378 kts | 269° |
| 2026-04-24 22:02 | 11.26456 | -70.49949 | 43889 ft | 378 kts | 270° |
| 2026-04-24 22:03 | 11.26670 | -70.55299 | 43888 ft | 378 kts | 270° |
| 2026-04-24 22:03 | 11.26888 | -70.60620 | 43888 ft | 378 kts | 270° |
| 2026-04-24 22:04 | 11.27111 | -70.65975 | 43880 ft | 379 kts | 270° |
| 2026-04-24 22:04 | 11.27223 | -70.68680 | 43397 ft | 383 kts | 270° |
| 2026-04-24 22:04 | 11.27340 | -70.71388 | 42903 ft | 382 kts | 270° |
| 2026-04-24 22:04 | 11.27422 | -70.74086 | 42408 ft | 380 kts | 268° |
| 2026-04-24 22:05 | 11.27469 | -70.76740 | 41920 ft | 379 kts | 268° |
| 2026-04-24 22:05 | 11.27507 | -70.79419 | 41425 ft | 378 kts | 268° |
| 2026-04-24 22:05 | 11.27549 | -70.82091 | 40931 ft | 377 kts | 268° |
| 2026-04-24 22:05 | 11.27600 | -70.84760 | 40434 ft | 376 kts | 268° |
| 2026-04-24 22:06 | 11.27653 | -70.87424 | 39940 ft | 376 kts | 268° |
| 2026-04-24 22:06 | 11.27713 | -70.90079 | 39446 ft | 375 kts | 268° |
| 2026-04-24 22:06 | 11.27778 | -70.92733 | 38950 ft | 374 kts | 268° |
| 2026-04-24 22:06 | 11.27849 | -70.95347 | 38461 ft | 374 kts | 268° |
| 2026-04-24 22:07 | 11.27926 | -70.97991 | 37961 ft | 373 kts | 268° |
| 2026-04-24 22:07 | 11.28001 | -71.00630 | 37471 ft | 372 kts | 268° |
| 2026-04-24 22:07 | 11.28078 | -71.03260 | 36977 ft | 371 kts | 268° |
| 2026-04-24 22:07 | 11.28151 | -71.05883 | 36483 ft | 370 kts | 268° |
| 2026-04-24 22:08 | 11.28227 | -71.08493 | 35990 ft | 369 kts | 268° |
| 2026-04-24 22:08 | 11.28301 | -71.11099 | 35494 ft | 367 kts | 268° |
| 2026-04-24 22:08 | 11.28376 | -71.13696 | 34998 ft | 366 kts | 268° |
| 2026-04-24 22:08 | 11.28449 | -71.16286 | 34501 ft | 365 kts | 268° |
| 2026-04-24 22:09 | 11.28519 | -71.18834 | 34007 ft | 364 kts | 268° |
| 2026-04-24 22:09 | 11.28589 | -71.21409 | 33512 ft | 363 kts | 268° |
| 2026-04-24 22:09 | 11.28656 | -71.23977 | 33013 ft | 362 kts | 268° |
| 2026-04-24 22:09 | 11.28721 | -71.26536 | 32516 ft | 361 kts | 268° |
| 2026-04-24 22:10 | 11.28780 | -71.29084 | 32019 ft | 359 kts | 268° |
| 2026-04-24 22:10 | 11.28837 | -71.31621 | 31521 ft | 358 kts | 268° |
| 2026-04-24 22:10 | 11.28887 | -71.34148 | 31024 ft | 356 kts | 268° |
| 2026-04-24 22:10 | 11.28931 | -71.36664 | 30522 ft | 354 kts | 268° |
| 2026-04-24 22:11 | 11.28967 | -71.39163 | 30032 ft | 353 kts | 268° |
| 2026-04-24 22:11 | 11.28999 | -71.41622 | 29539 ft | 351 kts | 268° |
| 2026-04-24 22:11 | 11.29023 | -71.44105 | 29038 ft | 350 kts | 268° |
| 2026-04-24 22:11 | 11.29047 | -71.46576 | 28543 ft | 348 kts | 268° |
| 2026-04-24 22:12 | 11.29070 | -71.49037 | 28045 ft | 347 kts | 268° |
| 2026-04-24 22:12 | 11.29092 | -71.51492 | 27548 ft | 346 kts | 268° |
| 2026-04-24 22:12 | 11.29115 | -71.53939 | 27051 ft | 345 kts | 268° |
| 2026-04-24 22:12 | 11.29132 | -71.56376 | 26552 ft | 343 kts | 268° |
| 2026-04-24 22:13 | 11.29154 | -71.58773 | 26061 ft | 342 kts | 268° |
| 2026-04-24 22:13 | 11.29168 | -71.61190 | 25565 ft | 341 kts | 268° |
| 2026-04-24 22:13 | 11.29183 | -71.63604 | 25066 ft | 340 kts | 268° |
| 2026-04-24 22:13 | 11.29199 | -71.66007 | 24569 ft | 339 kts | 268° |
| 2026-04-24 22:14 | 11.29214 | -71.68401 | 24075 ft | 337 kts | 268° |
| 2026-04-24 22:14 | 11.29227 | -71.70787 | 23573 ft | 336 kts | 268° |
| 2026-04-24 22:14 | 11.29236 | -71.73165 | 23074 ft | 335 kts | 268° |
| 2026-04-24 22:14 | 11.29245 | -71.75535 | 22577 ft | 334 kts | 268° |
| 2026-04-24 22:15 | 11.29253 | -71.77866 | 22085 ft | 333 kts | 268° |
| 2026-04-24 22:15 | 11.29261 | -71.80219 | 21588 ft | 331 kts | 268° |
| 2026-04-24 22:15 | 11.29265 | -71.82558 | 21091 ft | 330 kts | 268° |
| 2026-04-24 22:15 | 11.29272 | -71.84894 | 20593 ft | 329 kts | 268° |
| 2026-04-24 22:16 | 11.29274 | -71.87224 | 20093 ft | 328 kts | 268° |
| 2026-04-24 22:16 | 11.29273 | -71.89544 | 19598 ft | 327 kts | 268° |
| 2026-04-24 22:16 | 11.29271 | -71.91847 | 19073 ft | 320 kts | 269° |
| 2026-04-24 22:16 | 11.29271 | -71.94095 | 18324 ft | 314 kts | 268° |
| 2026-04-24 22:17 | 11.29268 | -71.96303 | 17575 ft | 309 kts | 269° |
| 2026-04-24 22:17 | 11.29265 | -71.98448 | 16836 ft | 304 kts | 269° |
| 2026-04-24 22:17 | 11.29259 | -72.00590 | 16086 ft | 300 kts | 268° |
| 2026-04-24 22:17 | 11.29256 | -72.02703 | 15339 ft | 296 kts | 269° |
| 2026-04-24 22:18 | 11.29325 | -72.04793 | 14590 ft | 293 kts | 271° |
| 2026-04-24 22:18 | 11.29410 | -72.06855 | 13843 ft | 290 kts | 271° |
| 2026-04-24 22:18 | 11.29505 | -72.08897 | 13092 ft | 287 kts | 272° |
| 2026-04-24 22:18 | 11.29593 | -72.10921 | 12348 ft | 285 kts | 271° |
| 2026-04-24 22:19 | 11.29680 | -72.12926 | 11598 ft | 282 kts | 272° |
| 2026-04-24 22:19 | 11.29763 | -72.14884 | 10865 ft | 280 kts | 271° |
| 2026-04-24 22:19 | 11.29848 | -72.16857 | 10118 ft | 278 kts | 272° |
| 2026-04-24 22:19 | 11.29923 | -72.18819 | 9376 ft | 277 kts | 271° |
| 2026-04-24 22:20 | 11.29997 | -72.20771 | 8627 ft | 275 kts | 271° |
| 2026-04-24 22:20 | 11.29939 | -72.22710 | 7876 ft | 273 kts | 266° |
| 2026-04-24 22:20 | 11.29823 | -72.24634 | 7128 ft | 271 kts | 266° |
| 2026-04-24 22:20 | 11.29700 | -72.26544 | 6385 ft | 270 kts | 265° |
| 2026-04-24 22:21 | 11.29575 | -72.28445 | 5639 ft | 268 kts | 266° |
| 2026-04-24 22:21 | 11.29452 | -72.30327 | 5058 ft | 261 kts | 265° |
| 2026-04-24 22:21 | 11.29259 | -72.32104 | 4613 ft | 251 kts | 261° |
| 2026-04-24 22:21 | 11.28991 | -72.33834 | 4163 ft | 244 kts | 261° |
| 2026-04-24 22:22 | 11.28718 | -72.35504 | 3859 ft | 233 kts | 260° |
| 2026-04-24 22:22 | 11.28461 | -72.37084 | 3634 ft | 220 kts | 261° |
| 2026-04-24 22:22 | 11.28211 | -72.38612 | 3453 ft | 218 kts | 261° |
| 2026-04-24 22:22 | 11.27949 | -72.40127 | 3262 ft | 216 kts | 258° |
| 2026-04-24 22:23 | 11.27567 | -72.41603 | 3086 ft | 215 kts | 255° |
| 2026-04-24 22:23 | 11.27165 | -72.43068 | 2898 ft | 215 kts | 255° |
| 2026-04-24 22:23 | 11.26758 | -72.44523 | 2728 ft | 208 kts | 255° |
| 2026-04-24 22:23 | 11.26394 | -72.45889 | 2551 ft | 199 kts | 259° |
| 2026-04-24 22:24 | 11.26265 | -72.47253 | 2363 ft | 188 kts | 270° |
| 2026-04-24 22:24 | 11.26227 | -72.48559 | 2176 ft | 182 kts | 268° |
| 2026-04-24 22:24 | 11.26174 | -72.49842 | 1996 ft | 181 kts | 269° |
| 2026-04-24 22:24 | 11.26129 | -72.51115 | 1824 ft | 180 kts | 269° |
| 2026-04-24 22:25 | 11.25895 | -72.52319 | 1683 ft | 163 kts | 245° |
| 2026-04-24 22:25 | 11.25276 | -72.53148 | 1578 ft | 138 kts | 220° |
| 2026-04-24 22:25 | 11.24389 | -72.53282 | 1445 ft | 130 kts | 158° |
| 2026-04-24 22:25 | 11.23791 | -72.52650 | 1336 ft | 126 kts | 124° |
| 2026-04-24 22:26 | 11.23428 | -72.51858 | 1035 ft | 120 kts | 104° |
| 2026-04-24 22:26 | 11.23287 | -72.51040 | 714 ft | 116 kts | 96° |
| 2026-04-24 22:26 | 11.23257 | -72.50219 | 462 ft | 113 kts | 90° |
| 2026-04-24 22:26 | 11.23255 | -72.49451 | 310 ft | 103 kts | 90° |
| 2026-04-24 22:27 | 11.23257 | -72.48864 | 325 ft | 58 kts | 90° |
| 2026-04-24 22:27 | 11.23253 | -72.48557 | 331 ft | 25 kts | 96° |
| 2026-04-24 22:27 | 11.23258 | -72.48534 | 331 ft | 13 kts | 267° |
| 2026-04-24 22:27 | 11.23258 | -72.48665 | 331 ft | 22 kts | 270° |
| 2026-04-24 22:28 | 11.23259 | -72.48822 | 327 ft | 23 kts | 270° |
| 2026-04-24 22:28 | 11.23259 | -72.48988 | 323 ft | 21 kts | 278° |
| 2026-04-24 22:28 | 11.23365 | -72.49016 | 319 ft | 18 kts | 359° |
| 2026-04-24 22:28 | 11.23492 | -72.49018 | 316 ft | 17 kts | 347° |
| 2026-04-24 22:29 | 11.23540 | -72.49031 | 316 ft | 0 kts | 4° |